sensor_id;sensor_type;location;lat;lon;timestamp;P1;durP1;ratioP1;P2;durP2;ratioP2
52816;SDS011;38687;43.330;21.924;2023-06-10T00:01:28;4.03;;;3.63;;
52816;SDS011;38687;43.330;21.924;2023-06-10T00:03:56;4.50;;;3.43;;
52816;SDS011;38687;43.330;21.924;2023-06-10T00:06:25;4.88;;;3.83;;
52816;SDS011;38687;43.330;21.924;2023-06-10T00:08:53;8.10;;;4.22;;
52816;SDS011;38687;43.330;21.924;2023-06-10T00:11:20;4.82;;;3.30;;
52816;SDS011;38687;43.330;21.924;2023-06-10T00:13:46;4.78;;;3.78;;
52816;SDS011;38687;43.330;21.924;2023-06-10T00:16:12;5.20;;;3.72;;
52816;SDS011;38687;43.330;21.924;2023-06-10T00:18:37;4.20;;;3.10;;
52816;SDS011;38687;43.330;21.924;2023-06-10T00:21:04;6.53;;;4.15;;
52816;SDS011;38687;43.330;21.924;2023-06-10T00:23:29;4.47;;;3.72;;
52816;SDS011;38687;43.330;21.924;2023-06-10T00:25:57;4.13;;;3.40;;
52816;SDS011;38687;43.330;21.924;2023-06-10T00:28:24;4.88;;;3.80;;
52816;SDS011;38687;43.330;21.924;2023-06-10T00:30:49;6.47;;;4.00;;
52816;SDS011;38687;43.330;21.924;2023-06-10T00:33:14;4.20;;;3.65;;
52816;SDS011;38687;43.330;21.924;2023-06-10T00:35:41;4.95;;;3.67;;
52816;SDS011;38687;43.330;21.924;2023-06-10T00:38:06;5.03;;;3.17;;
52816;SDS011;38687;43.330;21.924;2023-06-10T00:40:38;3.58;;;3.13;;
52816;SDS011;38687;43.330;21.924;2023-06-10T00:43:04;3.90;;;3.47;;
52816;SDS011;38687;43.330;21.924;2023-06-10T00:45:30;3.78;;;3.25;;
52816;SDS011;38687;43.330;21.924;2023-06-10T00:47:55;4.63;;;4.00;;
52816;SDS011;38687;43.330;21.924;2023-06-10T00:50:21;4.18;;;3.38;;
52816;SDS011;38687;43.330;21.924;2023-06-10T00:52:46;5.28;;;3.80;;
52816;SDS011;38687;43.330;21.924;2023-06-10T00:55:16;5.75;;;3.85;;
52816;SDS011;38687;43.330;21.924;2023-06-10T00:57:43;6.18;;;3.72;;
52816;SDS011;38687;43.330;21.924;2023-06-10T01:00:10;4.20;;;3.42;;
52816;SDS011;38687;43.330;21.924;2023-06-10T01:02:43;4.20;;;3.80;;
52816;SDS011;38687;43.330;21.924;2023-06-10T01:05:09;4.95;;;3.53;;
52816;SDS011;38687;43.330;21.924;2023-06-10T01:07:40;4.13;;;3.20;;
52816;SDS011;38687;43.330;21.924;2023-06-10T01:10:43;3.40;;;3.10;;
52816;SDS011;38687;43.330;21.924;2023-06-10T01:13:14;3.78;;;3.47;;
52816;SDS011;38687;43.330;21.924;2023-06-10T01:15:40;4.43;;;3.20;;
52816;SDS011;38687;43.330;21.924;2023-06-10T01:18:09;4.65;;;3.22;;
52816;SDS011;38687;43.330;21.924;2023-06-10T01:20:38;3.90;;;3.28;;
52816;SDS011;38687;43.330;21.924;2023-06-10T01:23:05;5.35;;;3.20;;
52816;SDS011;38687;43.330;21.924;2023-06-10T01:25:31;3.40;;;3.00;;
52816;SDS011;38687;43.330;21.924;2023-06-10T01:33:20;4.43;;;3.30;;
52816;SDS011;38687;43.330;21.924;2023-06-10T01:35:52;6.03;;;3.67;;
52816;SDS011;38687;43.330;21.924;2023-06-10T01:38:18;4.20;;;3.83;;
52816;SDS011;38687;43.330;21.924;2023-06-10T01:40:45;3.67;;;2.90;;
52816;SDS011;38687;43.330;21.924;2023-06-10T01:43:11;4.85;;;3.75;;
52816;SDS011;38687;43.330;21.924;2023-06-10T01:45:36;7.45;;;3.65;;
52816;SDS011;38687;43.330;21.924;2023-06-10T01:48:02;4.05;;;3.22;;
52816;SDS011;38687;43.330;21.924;2023-06-10T01:50:27;4.95;;;3.50;;
52816;SDS011;38687;43.330;21.924;2023-06-10T01:52:53;6.28;;;3.80;;
52816;SDS011;38687;43.330;21.924;2023-06-10T01:55:18;4.70;;;3.78;;
52816;SDS011;38687;43.330;21.924;2023-06-10T01:57:44;5.70;;;3.85;;
52816;SDS011;38687;43.330;21.924;2023-06-10T02:00:09;3.95;;;3.55;;
52816;SDS011;38687;43.330;21.924;2023-06-10T02:02:36;6.03;;;3.50;;
52816;SDS011;38687;43.330;21.924;2023-06-10T02:05:02;3.83;;;3.50;;
52816;SDS011;38687;43.330;21.924;2023-06-10T02:07:27;5.80;;;3.83;;
52816;SDS011;38687;43.330;21.924;2023-06-10T02:09:53;6.35;;;3.50;;
52816;SDS011;38687;43.330;21.924;2023-06-10T02:12:18;5.05;;;3.50;;
52816;SDS011;38687;43.330;21.924;2023-06-10T02:14:44;3.40;;;3.10;;
52816;SDS011;38687;43.330;21.924;2023-06-10T02:17:09;6.28;;;3.63;;
52816;SDS011;38687;43.330;21.924;2023-06-10T02:19:38;5.00;;;4.03;;
52816;SDS011;38687;43.330;21.924;2023-06-10T02:22:07;3.95;;;3.50;;
52816;SDS011;38687;43.330;21.924;2023-06-10T02:24:36;4.90;;;3.58;;
52816;SDS011;38687;43.330;21.924;2023-06-10T02:27:03;4.75;;;3.53;;
52816;SDS011;38687;43.330;21.924;2023-06-10T02:29:32;6.15;;;3.60;;
52816;SDS011;38687;43.330;21.924;2023-06-10T02:31:59;5.72;;;3.55;;
52816;SDS011;38687;43.330;21.924;2023-06-10T02:34:24;5.72;;;3.47;;
52816;SDS011;38687;43.330;21.924;2023-06-10T02:36:49;7.30;;;3.45;;
52816;SDS011;38687;43.330;21.924;2023-06-10T02:39:16;5.57;;;3.67;;
52816;SDS011;38687;43.330;21.924;2023-06-10T02:41:41;6.28;;;3.58;;
52816;SDS011;38687;43.330;21.924;2023-06-10T02:44:07;3.65;;;3.28;;
52816;SDS011;38687;43.330;21.924;2023-06-10T02:46:32;5.03;;;3.92;;
52816;SDS011;38687;43.330;21.924;2023-06-10T02:49:01;4.13;;;3.67;;
52816;SDS011;38687;43.330;21.924;2023-06-10T02:51:26;4.38;;;3.67;;
52816;SDS011;38687;43.330;21.924;2023-06-10T02:53:52;5.53;;;4.03;;
52816;SDS011;38687;43.330;21.924;2023-06-10T02:56:18;6.05;;;3.63;;
52816;SDS011;38687;43.330;21.924;2023-06-10T02:58:44;5.25;;;3.97;;
52816;SDS011;38687;43.330;21.924;2023-06-10T03:01:12;5.72;;;3.80;;
52816;SDS011;38687;43.330;21.924;2023-06-10T03:03:38;5.70;;;3.70;;
52816;SDS011;38687;43.330;21.924;2023-06-10T03:06:10;5.68;;;3.25;;
52816;SDS011;38687;43.330;21.924;2023-06-10T03:08:36;5.93;;;3.75;;
52816;SDS011;38687;43.330;21.924;2023-06-10T03:11:02;5.80;;;3.63;;
52816;SDS011;38687;43.330;21.924;2023-06-10T03:13:28;4.25;;;3.47;;
52816;SDS011;38687;43.330;21.924;2023-06-10T03:15:53;5.55;;;3.60;;
52816;SDS011;38687;43.330;21.924;2023-06-10T03:18:19;6.03;;;3.85;;
52816;SDS011;38687;43.330;21.924;2023-06-10T03:20:45;4.38;;;3.95;;
52816;SDS011;38687;43.330;21.924;2023-06-10T03:23:11;5.93;;;4.07;;
52816;SDS011;38687;43.330;21.924;2023-06-10T03:25:36;5.60;;;4.25;;
52816;SDS011;38687;43.330;21.924;2023-06-10T03:28:02;4.28;;;3.55;;
52816;SDS011;38687;43.330;21.924;2023-06-10T03:30:30;6.43;;;4.30;;
52816;SDS011;38687;43.330;21.924;2023-06-10T03:32:59;4.07;;;3.78;;
52816;SDS011;38687;43.330;21.924;2023-06-10T03:35:24;5.75;;;4.53;;
52816;SDS011;38687;43.330;21.924;2023-06-10T03:37:51;3.97;;;3.45;;
52816;SDS011;38687;43.330;21.924;2023-06-10T03:40:16;6.93;;;4.63;;
52816;SDS011;38687;43.330;21.924;2023-06-10T03:42:42;7.35;;;4.82;;
52816;SDS011;38687;43.330;21.924;2023-06-10T03:45:09;5.72;;;4.18;;
52816;SDS011;38687;43.330;21.924;2023-06-10T03:47:35;6.20;;;4.38;;
52816;SDS011;38687;43.330;21.924;2023-06-10T03:50:02;4.53;;;3.88;;
52816;SDS011;38687;43.330;21.924;2023-06-10T03:52:28;5.50;;;4.03;;
52816;SDS011;38687;43.330;21.924;2023-06-10T03:54:54;4.50;;;4.03;;
52816;SDS011;38687;43.330;21.924;2023-06-10T03:57:22;7.63;;;5.53;;
52816;SDS011;38687;43.330;21.924;2023-06-10T03:59:48;7.32;;;5.63;;
52816;SDS011;38687;43.330;21.924;2023-06-10T04:02:13;8.63;;;6.00;;
52816;SDS011;38687;43.330;21.924;2023-06-10T04:04:41;5.28;;;4.72;;
52816;SDS011;38687;43.330;21.924;2023-06-10T04:07:07;7.75;;;5.18;;
52816;SDS011;38687;43.330;21.924;2023-06-10T04:09:33;7.45;;;4.80;;
52816;SDS011;38687;43.330;21.924;2023-06-10T04:12:00;7.35;;;5.13;;
52816;SDS011;38687;43.330;21.924;2023-06-10T04:14:26;5.93;;;4.75;;
52816;SDS011;38687;43.330;21.924;2023-06-10T04:16:52;5.68;;;4.88;;
52816;SDS011;38687;43.330;21.924;2023-06-10T04:19:17;7.10;;;4.80;;
52816;SDS011;38687;43.330;21.924;2023-06-10T04:21:46;5.20;;;4.00;;
52816;SDS011;38687;43.330;21.924;2023-06-10T04:24:11;5.70;;;4.55;;
52816;SDS011;38687;43.330;21.924;2023-06-10T04:26:37;7.13;;;4.70;;
52816;SDS011;38687;43.330;21.924;2023-06-10T04:29:03;6.68;;;3.95;;
52816;SDS011;38687;43.330;21.924;2023-06-10T04:31:28;6.90;;;4.20;;
52816;SDS011;38687;43.330;21.924;2023-06-10T04:33:54;6.25;;;3.97;;
52816;SDS011;38687;43.330;21.924;2023-06-10T04:36:20;6.55;;;4.25;;
52816;SDS011;38687;43.330;21.924;2023-06-10T04:38:46;6.72;;;5.28;;
52816;SDS011;38687;43.330;21.924;2023-06-10T04:41:11;6.70;;;5.00;;
52816;SDS011;38687;43.330;21.924;2023-06-10T04:43:37;4.38;;;3.97;;
52816;SDS011;38687;43.330;21.924;2023-06-10T04:46:06;4.63;;;4.18;;
52816;SDS011;38687;43.330;21.924;2023-06-10T04:48:32;4.07;;;3.67;;
52816;SDS011;38687;43.330;21.924;2023-06-10T04:51:00;4.43;;;3.75;;
52816;SDS011;38687;43.330;21.924;2023-06-10T04:53:25;5.15;;;3.90;;
52816;SDS011;38687;43.330;21.924;2023-06-10T04:55:51;4.22;;;3.83;;
52816;SDS011;38687;43.330;21.924;2023-06-10T04:58:16;4.88;;;4.32;;
52816;SDS011;38687;43.330;21.924;2023-06-10T05:00:45;7.47;;;4.65;;
52816;SDS011;38687;43.330;21.924;2023-06-10T05:03:10;5.50;;;3.97;;
52816;SDS011;38687;43.330;21.924;2023-06-10T05:05:39;5.15;;;3.85;;
52816;SDS011;38687;43.330;21.924;2023-06-10T05:08:07;8.18;;;4.07;;
52816;SDS011;38687;43.330;21.924;2023-06-10T05:10:36;5.07;;;3.95;;
52816;SDS011;38687;43.330;21.924;2023-06-10T05:13:01;6.07;;;4.55;;
52816;SDS011;38687;43.330;21.924;2023-06-10T05:15:28;6.25;;;4.13;;
52816;SDS011;38687;43.330;21.924;2023-06-10T05:17:55;4.30;;;3.90;;
52816;SDS011;38687;43.330;21.924;2023-06-10T05:20:22;5.43;;;4.45;;
52816;SDS011;38687;43.330;21.924;2023-06-10T05:22:47;5.10;;;4.43;;
52816;SDS011;38687;43.330;21.924;2023-06-10T05:25:13;5.35;;;3.97;;
52816;SDS011;38687;43.330;21.924;2023-06-10T05:27:38;5.65;;;3.92;;
52816;SDS011;38687;43.330;21.924;2023-06-10T05:30:05;5.03;;;4.28;;
52816;SDS011;38687;43.330;21.924;2023-06-10T05:32:33;6.57;;;4.20;;
52816;SDS011;38687;43.330;21.924;2023-06-10T05:34:58;4.18;;;3.78;;
52816;SDS011;38687;43.330;21.924;2023-06-10T05:37:25;5.43;;;4.57;;
52816;SDS011;38687;43.330;21.924;2023-06-10T05:39:50;5.75;;;4.70;;
52816;SDS011;38687;43.330;21.924;2023-06-10T05:42:16;7.60;;;5.10;;
52816;SDS011;38687;43.330;21.924;2023-06-10T05:44:41;6.85;;;5.10;;
52816;SDS011;38687;43.330;21.924;2023-06-10T05:47:07;8.63;;;5.07;;
52816;SDS011;38687;43.330;21.924;2023-06-10T05:49:32;6.07;;;5.45;;
52816;SDS011;38687;43.330;21.924;2023-06-10T05:51:57;6.30;;;5.50;;
52816;SDS011;38687;43.330;21.924;2023-06-10T05:54:24;7.75;;;6.05;;
52816;SDS011;38687;43.330;21.924;2023-06-10T05:56:50;8.27;;;7.15;;
52816;SDS011;38687;43.330;21.924;2023-06-10T05:59:16;9.00;;;6.75;;
52816;SDS011;38687;43.330;21.924;2023-06-10T06:01:41;7.13;;;6.45;;
52816;SDS011;38687;43.330;21.924;2023-06-10T06:04:06;8.93;;;7.38;;
52816;SDS011;38687;43.330;21.924;2023-06-10T06:06:32;8.90;;;7.90;;
52816;SDS011;38687;43.330;21.924;2023-06-10T06:08:57;12.55;;;8.50;;
52816;SDS011;38687;43.330;21.924;2023-06-10T06:11:23;9.77;;;8.60;;
52816;SDS011;38687;43.330;21.924;2023-06-10T06:13:50;11.55;;;8.82;;
52816;SDS011;38687;43.330;21.924;2023-06-10T06:16:15;8.73;;;7.93;;
52816;SDS011;38687;43.330;21.924;2023-06-10T06:18:41;10.70;;;9.60;;
52816;SDS011;38687;43.330;21.924;2023-06-10T06:21:07;9.68;;;7.70;;
52816;SDS011;38687;43.330;21.924;2023-06-10T06:23:32;12.45;;;8.65;;
52816;SDS011;38687;43.330;21.924;2023-06-10T06:25:58;12.70;;;7.95;;
52816;SDS011;38687;43.330;21.924;2023-06-10T06:28:23;11.05;;;7.75;;
52816;SDS011;38687;43.330;21.924;2023-06-10T06:30:53;11.30;;;7.35;;
52816;SDS011;38687;43.330;21.924;2023-06-10T06:33:20;12.02;;;8.23;;
52816;SDS011;38687;43.330;21.924;2023-06-10T06:35:45;9.13;;;7.35;;
52816;SDS011;38687;43.330;21.924;2023-06-10T06:38:11;9.25;;;6.22;;
52816;SDS011;38687;43.330;21.924;2023-06-10T06:40:37;10.60;;;7.53;;
52816;SDS011;38687;43.330;21.924;2023-06-10T06:43:02;6.53;;;5.85;;
52816;SDS011;38687;43.330;21.924;2023-06-10T06:45:27;8.77;;;6.32;;
52816;SDS011;38687;43.330;21.924;2023-06-10T06:47:53;6.40;;;5.57;;
52816;SDS011;38687;43.330;21.924;2023-06-10T06:50:18;5.53;;;4.57;;
52816;SDS011;38687;43.330;21.924;2023-06-10T06:52:44;5.03;;;4.50;;
52816;SDS011;38687;43.330;21.924;2023-06-10T06:55:09;6.88;;;4.82;;
52816;SDS011;38687;43.330;21.924;2023-06-10T06:57:35;5.20;;;4.70;;
52816;SDS011;38687;43.330;21.924;2023-06-10T07:00:02;6.93;;;4.80;;
52816;SDS011;38687;43.330;21.924;2023-06-10T07:02:27;5.28;;;4.78;;
52816;SDS011;38687;43.330;21.924;2023-06-10T07:04:53;5.25;;;4.63;;
52816;SDS011;38687;43.330;21.924;2023-06-10T07:07:21;4.63;;;4.20;;
52816;SDS011;38687;43.330;21.924;2023-06-10T07:09:46;5.15;;;4.65;;
52816;SDS011;38687;43.330;21.924;2023-06-10T07:12:12;5.40;;;4.20;;
52816;SDS011;38687;43.330;21.924;2023-06-10T07:14:37;5.80;;;5.03;;
52816;SDS011;38687;43.330;21.924;2023-06-10T07:17:02;5.75;;;3.90;;
52816;SDS011;38687;43.330;21.924;2023-06-10T07:19:28;8.27;;;4.35;;
52816;SDS011;38687;43.330;21.924;2023-06-10T07:21:54;4.32;;;3.92;;
52816;SDS011;38687;43.330;21.924;2023-06-10T07:24:20;4.47;;;3.03;;
52816;SDS011;38687;43.330;21.924;2023-06-10T07:26:46;4.75;;;3.63;;
52816;SDS011;38687;43.330;21.924;2023-06-10T07:29:11;4.68;;;3.88;;
52816;SDS011;38687;43.330;21.924;2023-06-10T07:31:37;4.95;;;3.60;;
52816;SDS011;38687;43.330;21.924;2023-06-10T07:34:03;5.47;;;4.30;;
52816;SDS011;38687;43.330;21.924;2023-06-10T07:36:29;3.70;;;3.40;;
52816;SDS011;38687;43.330;21.924;2023-06-10T07:38:54;3.58;;;3.28;;
52816;SDS011;38687;43.330;21.924;2023-06-10T07:41:20;4.30;;;3.38;;
52816;SDS011;38687;43.330;21.924;2023-06-10T07:43:45;6.68;;;4.13;;
52816;SDS011;38687;43.330;21.924;2023-06-10T07:46:11;6.00;;;3.47;;
52816;SDS011;38687;43.330;21.924;2023-06-10T07:48:36;4.18;;;3.65;;
52816;SDS011;38687;43.330;21.924;2023-06-10T07:51:05;6.45;;;3.67;;
52816;SDS011;38687;43.330;21.924;2023-06-10T07:53:30;4.25;;;3.90;;
52816;SDS011;38687;43.330;21.924;2023-06-10T07:55:56;5.13;;;4.00;;
52816;SDS011;38687;43.330;21.924;2023-06-10T07:58:21;6.60;;;3.92;;
52816;SDS011;38687;43.330;21.924;2023-06-10T08:00:47;4.80;;;4.28;;
52816;SDS011;38687;43.330;21.924;2023-06-10T08:03:13;5.35;;;4.32;;
52816;SDS011;38687;43.330;21.924;2023-06-10T08:05:39;4.22;;;3.83;;
52816;SDS011;38687;43.330;21.924;2023-06-10T08:08:05;5.15;;;4.13;;
52816;SDS011;38687;43.330;21.924;2023-06-10T08:10:30;5.78;;;3.97;;
52816;SDS011;38687;43.330;21.924;2023-06-10T08:12:55;4.82;;;4.07;;
52816;SDS011;38687;43.330;21.924;2023-06-10T08:15:21;5.03;;;4.10;;
52816;SDS011;38687;43.330;21.924;2023-06-10T08:17:46;3.95;;;3.65;;
52816;SDS011;38687;43.330;21.924;2023-06-10T08:20:12;4.72;;;4.00;;
52816;SDS011;38687;43.330;21.924;2023-06-10T08:22:40;5.72;;;4.43;;
52816;SDS011;38687;43.330;21.924;2023-06-10T08:25:06;4.20;;;3.80;;
52816;SDS011;38687;43.330;21.924;2023-06-10T08:27:31;6.85;;;3.65;;
52816;SDS011;38687;43.330;21.924;2023-06-10T08:29:57;4.18;;;3.78;;
52816;SDS011;38687;43.330;21.924;2023-06-10T08:32:25;4.00;;;3.65;;
52816;SDS011;38687;43.330;21.924;2023-06-10T08:34:51;4.72;;;3.97;;
52816;SDS011;38687;43.330;21.924;2023-06-10T08:37:16;5.97;;;4.05;;
52816;SDS011;38687;43.330;21.924;2023-06-10T08:39:42;5.35;;;4.38;;
52816;SDS011;38687;43.330;21.924;2023-06-10T08:44:38;5.10;;;4.60;;
52816;SDS011;38687;43.330;21.924;2023-06-10T08:47:12;5.63;;;4.63;;
52816;SDS011;38687;43.330;21.924;2023-06-10T08:49:43;6.13;;;4.60;;
52816;SDS011;38687;43.330;21.924;2023-06-10T08:52:15;5.10;;;4.60;;
52816;SDS011;38687;43.330;21.924;2023-06-10T08:54:52;5.38;;;4.88;;
52816;SDS011;38687;43.330;21.924;2023-06-10T08:57:18;6.00;;;5.43;;
52816;SDS011;38687;43.330;21.924;2023-06-10T08:59:46;5.88;;;5.38;;
52816;SDS011;38687;43.330;21.924;2023-06-10T09:02:12;5.78;;;5.28;;
52816;SDS011;38687;43.330;21.924;2023-06-10T09:04:40;5.53;;;4.75;;
52816;SDS011;38687;43.330;21.924;2023-06-10T09:07:08;5.40;;;4.85;;
52816;SDS011;38687;43.330;21.924;2023-06-10T09:09:34;5.85;;;5.07;;
52816;SDS011;38687;43.330;21.924;2023-06-10T09:12:00;5.90;;;5.30;;
52816;SDS011;38687;43.330;21.924;2023-06-10T09:14:25;5.72;;;4.55;;
52816;SDS011;38687;43.330;21.924;2023-06-10T09:16:51;6.10;;;5.50;;
52816;SDS011;38687;43.330;21.924;2023-06-10T09:19:22;5.88;;;5.28;;
52816;SDS011;38687;43.330;21.924;2023-06-10T09:21:49;6.38;;;5.43;;
52816;SDS011;38687;43.330;21.924;2023-06-10T09:24:14;6.20;;;5.68;;
52816;SDS011;38687;43.330;21.924;2023-06-10T09:26:41;6.68;;;6.07;;
52816;SDS011;38687;43.330;21.924;2023-06-10T09:29:07;6.57;;;5.97;;
52816;SDS011;38687;43.330;21.924;2023-06-10T09:31:38;9.25;;;6.55;;
52816;SDS011;38687;43.330;21.924;2023-06-10T09:34:11;7.65;;;6.35;;
52816;SDS011;38687;43.330;21.924;2023-06-10T09:36:38;6.15;;;5.55;;
52816;SDS011;38687;43.330;21.924;2023-06-10T09:39:04;8.32;;;7.45;;
52816;SDS011;38687;43.330;21.924;2023-06-10T09:41:33;8.23;;;7.03;;
52816;SDS011;38687;43.330;21.924;2023-06-10T09:44:00;7.05;;;6.45;;
52816;SDS011;38687;43.330;21.924;2023-06-10T09:46:25;7.35;;;6.60;;
52816;SDS011;38687;43.330;21.924;2023-06-10T09:48:57;7.53;;;6.72;;
52816;SDS011;38687;43.330;21.924;2023-06-10T09:51:22;7.63;;;6.68;;
52816;SDS011;38687;43.330;21.924;2023-06-10T09:53:48;7.47;;;6.63;;
52816;SDS011;38687;43.330;21.924;2023-06-10T09:56:16;6.85;;;6.25;;
52816;SDS011;38687;43.330;21.924;2023-06-10T09:58:41;10.07;;;7.15;;
52816;SDS011;38687;43.330;21.924;2023-06-10T10:01:09;8.02;;;7.18;;
52816;SDS011;38687;43.330;21.924;2023-06-10T10:03:48;9.30;;;7.10;;
52816;SDS011;38687;43.330;21.924;2023-06-10T10:06:16;7.85;;;7.03;;
52816;SDS011;38687;43.330;21.924;2023-06-10T10:08:42;7.93;;;7.13;;
52816;SDS011;38687;43.330;21.924;2023-06-10T10:11:08;6.70;;;6.07;;
52816;SDS011;38687;43.330;21.924;2023-06-10T10:13:34;9.27;;;6.90;;
52816;SDS011;38687;43.330;21.924;2023-06-10T10:16:09;7.43;;;6.72;;
52816;SDS011;38687;43.330;21.924;2023-06-10T10:18:38;8.18;;;6.85;;
52816;SDS011;38687;43.330;21.924;2023-06-10T10:21:05;8.70;;;6.78;;
52816;SDS011;38687;43.330;21.924;2023-06-10T10:23:44;8.65;;;6.85;;
52816;SDS011;38687;43.330;21.924;2023-06-10T10:26:12;7.32;;;6.60;;
52816;SDS011;38687;43.330;21.924;2023-06-10T10:28:44;7.38;;;6.68;;
52816;SDS011;38687;43.330;21.924;2023-06-10T10:31:11;7.07;;;6.45;;
52816;SDS011;38687;43.330;21.924;2023-06-10T10:33:42;7.32;;;6.63;;
52816;SDS011;38687;43.330;21.924;2023-06-10T10:36:11;7.15;;;6.35;;
52816;SDS011;38687;43.330;21.924;2023-06-10T10:38:37;7.72;;;6.82;;
52816;SDS011;38687;43.330;21.924;2023-06-10T10:41:02;7.28;;;6.47;;
52816;SDS011;38687;43.330;21.924;2023-06-10T10:43:29;7.88;;;7.18;;
52816;SDS011;38687;43.330;21.924;2023-06-10T10:45:59;7.57;;;6.88;;
52816;SDS011;38687;43.330;21.924;2023-06-10T10:48:25;8.27;;;7.47;;
52816;SDS011;38687;43.330;21.924;2023-06-10T10:50:57;7.75;;;6.80;;
52816;SDS011;38687;43.330;21.924;2023-06-10T10:53:24;7.60;;;6.63;;
52816;SDS011;38687;43.330;21.924;2023-06-10T10:58:34;8.27;;;6.50;;
52816;SDS011;38687;43.330;21.924;2023-06-10T11:01:00;9.20;;;6.55;;
52816;SDS011;38687;43.330;21.924;2023-06-10T11:03:35;6.85;;;6.13;;
52816;SDS011;38687;43.330;21.924;2023-06-10T11:06:13;6.53;;;5.90;;
52816;SDS011;38687;43.330;21.924;2023-06-10T11:11:24;8.98;;;7.10;;
52816;SDS011;38687;43.330;21.924;2023-06-10T11:16:38;9.13;;;8.20;;
52816;SDS011;38687;43.330;21.924;2023-06-10T11:19:07;7.60;;;6.90;;
52816;SDS011;38687;43.330;21.924;2023-06-10T11:24:28;6.88;;;6.20;;
52816;SDS011;38687;43.330;21.924;2023-06-10T11:26:54;6.00;;;5.50;;
52816;SDS011;38687;43.330;21.924;2023-06-10T11:29:20;6.28;;;4.80;;
52816;SDS011;38687;43.330;21.924;2023-06-10T11:31:48;5.35;;;4.85;;
52816;SDS011;38687;43.330;21.924;2023-06-10T11:34:25;5.20;;;4.68;;
52816;SDS011;38687;43.330;21.924;2023-06-10T11:36:52;5.15;;;4.65;;
52816;SDS011;38687;43.330;21.924;2023-06-10T11:39:20;5.03;;;4.53;;
52816;SDS011;38687;43.330;21.924;2023-06-10T11:41:46;4.55;;;4.25;;
52816;SDS011;38687;43.330;21.924;2023-06-10T11:44:12;4.82;;;4.30;;
52816;SDS011;38687;43.330;21.924;2023-06-10T11:46:39;4.80;;;4.30;;
52816;SDS011;38687;43.330;21.924;2023-06-10T11:49:07;5.25;;;4.60;;
52816;SDS011;38687;43.330;21.924;2023-06-10T11:51:37;6.50;;;5.18;;
52816;SDS011;38687;43.330;21.924;2023-06-10T11:54:04;4.72;;;4.32;;
52816;SDS011;38687;43.330;21.924;2023-06-10T11:56:30;4.75;;;4.35;;
52816;SDS011;38687;43.330;21.924;2023-06-10T11:59:00;5.90;;;4.35;;
52816;SDS011;38687;43.330;21.924;2023-06-10T12:01:30;4.63;;;4.13;;
52816;SDS011;38687;43.330;21.924;2023-06-10T12:04:02;4.57;;;4.18;;
52816;SDS011;38687;43.330;21.924;2023-06-10T12:09:24;3.85;;;3.55;;
52816;SDS011;38687;43.330;21.924;2023-06-10T12:11:58;4.40;;;4.00;;
52816;SDS011;38687;43.330;21.924;2023-06-10T12:17:15;5.57;;;4.55;;
52816;SDS011;38687;43.330;21.924;2023-06-10T12:19:40;5.03;;;4.32;;
52816;SDS011;38687;43.330;21.924;2023-06-10T12:22:06;4.50;;;4.10;;
52816;SDS011;38687;43.330;21.924;2023-06-10T12:24:31;5.32;;;4.10;;
52816;SDS011;38687;43.330;21.924;2023-06-10T12:26:57;4.70;;;4.20;;
52816;SDS011;38687;43.330;21.924;2023-06-10T12:29:22;4.38;;;3.90;;
52816;SDS011;38687;43.330;21.924;2023-06-10T12:31:52;4.68;;;4.28;;
52816;SDS011;38687;43.330;21.924;2023-06-10T12:34:34;4.65;;;4.25;;
52816;SDS011;38687;43.330;21.924;2023-06-10T12:37:02;5.53;;;4.35;;
52816;SDS011;38687;43.330;21.924;2023-06-10T12:39:29;5.45;;;3.90;;
52816;SDS011;38687;43.330;21.924;2023-06-10T12:41:57;5.00;;;4.50;;
52816;SDS011;38687;43.330;21.924;2023-06-10T12:44:33;5.50;;;4.28;;
52816;SDS011;38687;43.330;21.924;2023-06-10T12:46:59;4.38;;;3.97;;
52816;SDS011;38687;43.330;21.924;2023-06-10T12:49:26;5.65;;;4.47;;
52816;SDS011;38687;43.330;21.924;2023-06-10T12:51:51;4.35;;;3.95;;
52816;SDS011;38687;43.330;21.924;2023-06-10T12:54:17;4.28;;;3.88;;
52816;SDS011;38687;43.330;21.924;2023-06-10T12:56:43;4.57;;;4.03;;
52816;SDS011;38687;43.330;21.924;2023-06-10T12:59:08;4.32;;;3.92;;
52816;SDS011;38687;43.330;21.924;2023-06-10T13:01:34;4.95;;;3.92;;
52816;SDS011;38687;43.330;21.924;2023-06-10T13:03:59;4.68;;;4.28;;
52816;SDS011;38687;43.330;21.924;2023-06-10T13:06:25;5.50;;;4.43;;
52816;SDS011;38687;43.330;21.924;2023-06-10T13:08:50;4.07;;;3.67;;
52816;SDS011;38687;43.330;21.924;2023-06-10T13:11:16;4.15;;;3.85;;
52816;SDS011;38687;43.330;21.924;2023-06-10T13:13:42;3.80;;;3.45;;
52816;SDS011;38687;43.330;21.924;2023-06-10T13:16:07;3.85;;;3.55;;
52816;SDS011;38687;43.330;21.924;2023-06-10T13:18:33;4.15;;;3.75;;
52816;SDS011;38687;43.330;21.924;2023-06-10T13:21:02;5.25;;;4.20;;
52816;SDS011;38687;43.330;21.924;2023-06-10T13:23:29;3.85;;;3.15;;
52816;SDS011;38687;43.330;21.924;2023-06-10T13:25:56;5.07;;;3.65;;
52816;SDS011;38687;43.330;21.924;2023-06-10T13:28:22;3.88;;;3.25;;
52816;SDS011;38687;43.330;21.924;2023-06-10T13:30:48;4.63;;;3.53;;
52816;SDS011;38687;43.330;21.924;2023-06-10T13:33:13;3.53;;;3.22;;
52816;SDS011;38687;43.330;21.924;2023-06-10T13:35:39;4.20;;;3.53;;
52816;SDS011;38687;43.330;21.924;2023-06-10T13:38:04;3.70;;;3.22;;
52816;SDS011;38687;43.330;21.924;2023-06-10T13:40:30;4.97;;;3.40;;
52816;SDS011;38687;43.330;21.924;2023-06-10T13:42:55;3.75;;;3.33;;
52816;SDS011;38687;43.330;21.924;2023-06-10T13:45:23;4.57;;;3.50;;
52816;SDS011;38687;43.330;21.924;2023-06-10T13:47:54;4.45;;;3.30;;
52816;SDS011;38687;43.330;21.924;2023-06-10T13:50:20;3.80;;;3.50;;
52816;SDS011;38687;43.330;21.924;2023-06-10T13:52:46;3.85;;;3.55;;
52816;SDS011;38687;43.330;21.924;2023-06-10T13:55:11;4.10;;;3.70;;
52816;SDS011;38687;43.330;21.924;2023-06-10T13:57:37;3.88;;;3.58;;
52816;SDS011;38687;43.330;21.924;2023-06-10T14:00:02;3.75;;;3.45;;
52816;SDS011;38687;43.330;21.924;2023-06-10T14:02:30;4.32;;;3.92;;
52816;SDS011;38687;43.330;21.924;2023-06-10T14:04:55;4.40;;;4.00;;
52816;SDS011;38687;43.330;21.924;2023-06-10T14:07:21;4.10;;;3.72;;
52816;SDS011;38687;43.330;21.924;2023-06-10T14:09:46;6.18;;;4.57;;
52816;SDS011;38687;43.330;21.924;2023-06-10T14:12:11;4.93;;;4.45;;
52816;SDS011;38687;43.330;21.924;2023-06-10T14:14:38;4.50;;;4.10;;
52816;SDS011;38687;43.330;21.924;2023-06-10T14:17:03;5.78;;;4.60;;
52816;SDS011;38687;43.330;21.924;2023-06-10T14:19:30;5.30;;;4.50;;
52816;SDS011;38687;43.330;21.924;2023-06-10T14:21:55;6.03;;;4.82;;
52816;SDS011;38687;43.330;21.924;2023-06-10T14:24:21;4.88;;;4.38;;
52816;SDS011;38687;43.330;21.924;2023-06-10T14:26:46;4.75;;;4.15;;
52816;SDS011;38687;43.330;21.924;2023-06-10T14:29:12;4.93;;;4.45;;
52816;SDS011;38687;43.330;21.924;2023-06-10T14:31:39;5.53;;;5.03;;
52816;SDS011;38687;43.330;21.924;2023-06-10T14:34:05;4.95;;;4.45;;
52816;SDS011;38687;43.330;21.924;2023-06-10T14:36:32;7.15;;;4.53;;
52816;SDS011;38687;43.330;21.924;2023-06-10T14:38:58;5.03;;;4.53;;
52816;SDS011;38687;43.330;21.924;2023-06-10T14:41:23;5.22;;;4.72;;
52816;SDS011;38687;43.330;21.924;2023-06-10T14:43:49;5.72;;;4.88;;
52816;SDS011;38687;43.330;21.924;2023-06-10T14:46:15;5.43;;;4.90;;
52816;SDS011;38687;43.330;21.924;2023-06-10T14:48:40;7.43;;;5.13;;
52816;SDS011;38687;43.330;21.924;2023-06-10T14:51:06;4.97;;;4.57;;
52816;SDS011;38687;43.330;21.924;2023-06-10T14:53:32;6.78;;;5.18;;
52816;SDS011;38687;43.330;21.924;2023-06-10T14:55:58;5.43;;;4.65;;